Time;durP1;ratioP1;P1;durP2;ratioP2;P2;SDS_P1;SDS_P2;PMS_P1;PMS_P2;Temp;Humidity;BMP_temperature;BMP_pressure;BME280_temperature;BME280_humidity;BME280_pressure;Samples;Min_cycle;Max_cycle;Signal;HPM_P1;HPM_P2
2023/04/24 00:02:34;;;;;;;4.82;4.03;;;;;;;11.15;100.00;95291.22;10452305;28;20705;-64
2023/04/24 00:07:34;;;;;;;4.95;3.75;;;;;;;11.16;100.00;95281.53;10452539;28;20219;-66
2023/04/24 00:12:35;;;;;;;5.57;3.45;;;;;;;11.16;100.00;95274.47;10452311;28;20553;-65
2023/04/24 00:17:36;;;;;;;5.50;3.90;;;;;;;11.18;100.00;95274.28;10452199;28;20208;-65
2023/04/24 00:22:36;;;;;;;6.13;4.30;;;;;;;11.14;100.00;95276.47;10451855;28;20243;-64
2023/04/24 00:27:37;;;;;;;6.93;5.10;;;;;;;11.20;100.00;95295.88;10451795;28;20219;-64
2023/04/24 00:32:37;;;;;;;7.10;4.97;;;;;;;11.38;100.00;95303.22;10451666;28;20188;-65
2023/04/24 00:37:37;;;;;;;4.95;4.45;;;;;;;11.25;100.00;95301.31;10457013;28;20240;-64
2023/04/24 00:42:40;;;;;;;5.10;4.60;;;;;;;11.20;100.00;95298.50;10459297;28;20286;-65
2023/04/24 00:47:41;;;;;;;5.88;4.22;;;;;;;11.16;100.00;95292.00;10459611;28;20633;-65
2023/04/24 00:52:41;;;;;;;5.63;3.90;;;;;;;11.25;100.00;95288.22;10459057;28;20184;-64
2023/04/24 00:57:43;;;;;;;3.80;3.40;;;;;;;11.33;100.00;95277.56;10458933;28;20282;-65
2023/04/24 01:02:44;;;;;;;4.18;3.50;;;;;;;11.21;100.00;95276.53;10458678;28;20414;-65
2023/04/24 01:07:47;;;;;;;5.00;3.20;;;;;;;11.25;100.00;95285.59;10458470;28;20235;-66
2023/04/24 01:12:47;;;;;;;4.93;2.83;;;;;;;11.15;100.00;95279.91;10440853;28;20643;-65
2023/04/24 01:17:47;;;;;;;5.05;2.67;;;;;;;11.06;100.00;95303.66;10458299;28;20251;-65
2023/04/24 01:22:48;;;;;;;5.20;3.00;;;;;;;11.05;100.00;95291.56;10456540;28;20219;-65
2023/04/24 01:27:50;;;;;;;3.90;2.38;;;;;;;11.10;100.00;95282.31;10457245;28;20235;-64
2023/04/24 01:32:50;;;;;;;2.83;2.20;;;;;;;11.14;100.00;95278.31;10457512;28;20648;-66
2023/04/24 01:37:50;;;;;;;2.65;2.15;;;;;;;11.17;100.00;95293.63;10456290;28;20224;-65
2023/04/24 01:42:51;;;;;;;2.63;2.08;;;;;;;11.18;100.00;95290.81;10456915;28;20216;-65
2023/04/24 01:47:52;;;;;;;2.40;2.20;;;;;;;11.09;100.00;95283.31;10456975;28;20716;-65
2023/04/24 01:52:52;;;;;;;5.10;1.98;;;;;;;11.07;100.00;95276.47;10456831;28;20188;-65
2023/04/24 01:57:55;;;;;;;2.15;1.95;;;;;;;11.05;100.00;95272.41;10456572;28;20212;-66
2023/04/24 02:02:55;;;;;;;2.13;1.90;;;;;;;10.93;100.00;95269.53;10455343;28;20224;-66
2023/04/24 02:07:56;;;;;;;3.83;2.05;;;;;;;10.95;100.00;95266.72;10456059;28;20600;-65
2023/04/24 02:12:56;;;;;;;2.25;1.80;;;;;;;10.99;100.00;95283.69;10454977;28;20681;-65
2023/04/24 02:17:58;;;;;;;2.88;2.08;;;;;;;10.95;100.00;95262.31;10455888;28;20291;-64
2023/04/24 02:22:58;;;;;;;1.88;1.70;;;;;;;10.89;100.00;95268.31;10455660;28;20216;-65
2023/04/24 02:27:59;;;;;;;1.45;1.30;;;;;;;10.81;100.00;95268.47;10455600;28;20266;-65
2023/04/24 02:33:00;;;;;;;1.90;1.75;;;;;;;10.64;100.00;95278.44;10455041;28;20207;-65
2023/04/24 02:38:01;;;;;;;2.75;2.45;;;;;;;10.64;100.00;95281.06;10455088;28;20297;-65
2023/04/24 02:43:02;;;;;;;3.40;3.07;;;;;;;10.61;100.00;95278.81;10453376;28;20573;-65
2023/04/24 02:48:03;;;;;;;2.67;1.85;;;;;;;10.57;100.00;95273.19;10440743;28;20299;-65
2023/04/24 02:53:03;;;;;;;1.27;1.17;;;;;;;10.44;100.00;95273.88;10412146;28;20184;-64
2023/04/24 02:58:03;;;;;;;1.33;1.23;;;;;;;10.46;100.00;95271.06;10412588;28;20212;-65
2023/04/24 03:03:04;;;;;;;1.00;1.00;;;;;;;10.39;100.00;95276.28;10422308;28;20594;-65
2023/04/24 03:08:04;;;;;;;1.70;1.20;;;;;;;10.40;100.00;95259.56;10452347;28;20208;-64
2023/04/24 03:13:05;;;;;;;1.93;1.20;;;;;;;10.34;100.00;95276.03;10454083;28;20180;-65
2023/04/24 03:18:05;;;;;;;1.23;1.00;;;;;;;10.24;100.00;95268.47;10452226;28;20262;-65
2023/04/24 03:23:06;;;;;;;1.30;1.03;;;;;;;10.19;100.00;95276.09;10453470;28;20204;-66
2023/04/24 03:28:06;;;;;;;1.53;0.90;;;;;;;10.27;100.00;95272.53;10451982;28;20212;-65
2023/04/24 03:33:16;;;;;;;1.97;1.10;;;;;;;10.24;100.00;95270.28;10451574;28;20271;-65
2023/04/24 03:38:27;;;;;;;1.77;1.07;;;;;;;10.16;100.00;95285.13;10451591;28;20243;-67
2023/04/24 03:43:50;;;;;;;1.50;1.00;;;;;;;10.13;100.00;95282.09;10449373;28;20231;-66
2023/04/24 03:48:51;;;;;;;4.83;1.20;;;;;;;10.10;100.00;95288.50;10453028;28;20322;-65
2023/04/24 03:53:53;;;;;;;1.40;1.10;;;;;;;9.99;100.00;95296.88;10451355;28;20752;-66
2023/04/24 03:58:56;;;;;;;1.67;1.17;;;;;;;9.96;100.00;95292.00;10451310;28;20208;-66
2023/04/24 04:03:57;;;;;;;1.63;1.00;;;;;;;10.03;100.00;95303.34;10452224;28;20277;-66
2023/04/24 04:08:59;;;;;;;1.83;1.10;;;;;;;9.97;100.00;95310.13;10450913;28;20203;-66
2023/04/24 04:14:00;;;;;;;1.53;1.23;;;;;;;9.90;100.00;95309.25;10460202;28;20183;-66
2023/04/24 04:19:00;;;;;;;1.97;1.10;;;;;;;9.97;100.00;95310.13;10459114;28;20226;-66
2023/04/24 04:24:01;;;;;;;2.17;1.00;;;;;;;9.88;100.00;95300.78;10459014;28;20211;-65
2023/04/24 04:29:07;;;;;;;2.60;1.37;;;;;;;9.81;100.00;95305.16;10458966;28;20214;-66
2023/04/24 04:34:11;;;;;;;0.90;0.90;;;;;;;9.98;100.00;95297.84;10458797;28;20669;-66
2023/04/24 04:39:14;;;;;;;1.50;1.30;;;;;;;9.80;100.00;95299.13;10447064;22;20737;-68
2023/04/24 04:44:41;;;;;;;3.57;1.37;;;;;;;9.81;100.00;95299.91;10416820;28;20228;-67
2023/04/24 04:49:45;;;;;;;1.90;1.00;;;;;;;9.95;100.00;95293.00;10433285;28;20216;-67
2023/04/24 04:54:52;;;;;;;4.07;1.17;;;;;;;9.93;100.00;95292.38;10433130;28;20674;-67
2023/04/24 04:59:53;;;;;;;2.73;1.10;;;;;;;10.11;100.00;95297.97;10433088;28;20263;-67
2023/04/24 05:05:07;;;;;;;7.93;6.23;;;;;;;10.07;99.57;95295.94;10432566;28;20220;-67
2023/04/24 05:10:09;;;;;;;7.73;4.63;;;;;;;10.19;98.77;95304.88;10416060;28;20238;-67
2023/04/24 05:15:10;;;;;;;12.97;8.83;;;;;;;10.20;97.93;95298.66;10432532;28;20694;-67
2023/04/24 05:20:10;;;;;;;12.03;10.07;;;;;;;10.21;97.70;95299.47;10432347;28;20212;-67
2023/04/24 05:25:12;;;;;;;1.70;1.60;;;;;;;10.40;97.26;95301.47;10415539;28;20216;-67
2023/04/24 05:30:25;;;;;;;1.70;1.13;;;;;;;10.33;96.88;95309.25;10415515;28;20212;-67
2023/04/24 05:35:25;;;;;;;1.23;1.10;;;;;;;10.35;97.01;95296.78;10431797;28;20594;-66
2023/04/24 05:40:26;;;;;;;2.97;1.00;;;;;;;10.38;96.59;95306.06;10415649;28;20307;-66
2023/04/24 05:45:26;;;;;;;2.08;0.90;;;;;;;10.45;97.25;95314.78;10420862;28;20695;-67
2023/04/24 05:50:27;;;;;;;2.23;1.00;;;;;;;10.60;95.68;95288.50;10415705;28;20262;-66
2023/04/24 05:55:27;;;;;;;0.90;0.90;;;;;;;10.69;94.86;95292.59;10430981;28;20283;-67
2023/04/24 06:00:29;;;;;;;1.48;1.17;;;;;;;10.70;94.60;95311.72;10414094;28;20216;-67
2023/04/24 06:05:38;;;;;;;3.10;0.93;;;;;;;10.68;93.20;95304.06;10430270;28;20240;-67
2023/04/24 06:10:38;;;;;;;1.55;1.10;;;;;;;10.61;93.89;95311.09;10430582;28;20184;-67
2023/04/24 06:15:41;;;;;;;1.60;1.10;;;;;;;10.87;93.00;95302.56;10430452;28;20236;-67
2023/04/24 06:20:46;;;;;;;1.00;1.00;;;;;;;10.76;91.42;95303.09;10413425;28;20276;-67
2023/04/24 06:25:47;;;;;;;3.53;0.90;;;;;;;10.93;90.43;95298.34;10413062;28;20228;-67
2023/04/24 06:30:47;;;;;;;3.70;0.98;;;;;;;11.04;91.49;95303.06;10429377;28;20188;-67
2023/04/24 06:35:47;;;;;;;2.97;1.35;;;;;;;11.35;90.74;95307.03;10428596;28;20219;-68
2023/04/24 06:40:48;;;;;;;2.55;0.90;;;;;;;11.49;88.82;95300.00;10413386;28;20241;-67
2023/04/24 06:45:48;;;;;;;1.10;1.00;;;;;;;11.36;88.33;95302.56;10413731;28;20220;-67
2023/04/24 06:50:49;;;;;;;1.02;0.93;;;;;;;11.14;89.75;95305.31;10413428;28;20197;-67
2023/04/24 06:55:49;;;;;;;1.58;0.80;;;;;;;11.02;91.08;95322.59;10410085;28;20233;-66
2023/04/24 07:00:49;;;;;;;2.58;1.40;;;;;;;10.96;91.10;95316.31;10409155;28;20255;-67
2023/04/24 07:05:51;;;;;;;1.05;0.90;;;;;;;11.19;91.35;95326.53;10408955;28;20228;-67
2023/04/24 07:10:51;;;;;;;2.83;0.90;;;;;;;10.99;89.74;95322.97;10409330;28;20234;-67
2023/04/24 07:15:53;;;;;;;3.67;0.98;;;;;;;11.26;88.17;95310.03;10408891;28;20352;-66
2023/04/24 07:20:54;;;;;;;2.92;1.13;;;;;;;11.63;89.28;95334.94;10407469;28;20536;-66
2023/04/24 07:25:54;;;;;;;0.73;0.73;;;;;;;11.77;86.28;95314.81;10396836;28;20208;-66
2023/04/24 07:30:55;;;;;;;1.33;0.95;;;;;;;11.71;85.25;95305.91;10387429;28;20231;-66
2023/04/24 07:35:55;;;;;;;2.00;0.57;;;;;;;11.89;82.49;95299.28;10385761;28;20193;-67
2023/04/24 07:40:55;;;;;;;1.42;0.80;;;;;;;11.73;83.46;95309.16;10388022;28;20196;-67
2023/04/24 07:45:56;;;;;;;1.58;0.70;;;;;;;12.57;80.93;95300.97;10385635;28;20282;-66
2023/04/24 07:50:56;;;;;;;1.33;0.70;;;;;;;11.88;83.24;95334.41;10394910;28;20199;-67
2023/04/24 07:55:56;;;;;;;1.63;0.80;;;;;;;12.06;82.23;95318.13;10406896;28;20244;-67
2023/04/24 08:00:57;;;;;;;1.13;0.80;;;;;;;12.16;81.62;95318.56;10407306;28;20196;-66
2023/04/24 08:05:57;;;;;;;0.80;0.70;;;;;;;11.97;82.80;95328.00;10407516;28;20307;-66
2023/04/24 08:10:57;;;;;;;4.70;0.75;;;;;;;12.28;83.31;95326.63;10395610;28;20250;-66
2023/04/24 08:15:58;;;;;;;1.35;0.70;;;;;;;12.54;80.39;95311.88;10390029;28;20209;-67
2023/04/24 08:21:01;;;;;;;1.25;0.90;;;;;;;11.99;79.80;95312.88;10383887;28;20205;-66
2023/04/24 08:26:01;;;;;;;0.60;0.60;;;;;;;12.35;78.32;95287.25;10381779;28;20597;-66
2023/04/24 08:31:01;;;;;;;1.30;0.95;;;;;;;12.44;79.08;95312.28;10380515;28;20203;-66
2023/04/24 08:36:03;;;;;;;2.55;0.88;;;;;;;12.70;76.83;95290.44;10365849;28;20201;-66
2023/04/24 08:41:04;;;;;;;3.00;0.80;;;;;;;12.07;80.60;95335.50;10366743;28;20213;-65
2023/04/24 08:46:05;;;;;;;1.42;0.80;;;;;;;11.42;82.09;95352.44;10365612;28;20886;-65
2023/04/24 08:51:07;;;;;;;3.25;0.95;;;;;;;11.53;83.63;95371.22;10366016;28;20284;-66
2023/04/24 08:56:08;;;;;;;1.60;0.85;;;;;;;11.77;84.15;95381.19;10373826;28;20574;-65
2023/04/24 09:01:08;;;;;;;1.02;0.98;;;;;;;12.59;82.23;95356.75;10387585;28;20193;-67
2023/04/24 09:06:10;;;;;;;2.08;0.98;;;;;;;11.76;79.17;95324.50;10388603;28;20229;-65
2023/04/24 09:11:11;;;;;;;2.25;0.80;;;;;;;12.11;78.12;95316.53;10399237;28;20200;-67
2023/04/24 09:16:11;;;;;;;1.02;0.80;;;;;;;12.19;76.23;95291.06;10389204;28;20601;-67
2023/04/24 09:21:12;;;;;;;1.00;0.80;;;;;;;12.24;75.04;95280.78;10376473;28;20201;-66
2023/04/24 09:26:14;;;;;;;0.77;0.70;;;;;;;12.53;74.59;95289.25;10406406;28;20225;-66
2023/04/24 09:31:18;;;;;;;1.20;0.80;;;;;;;12.51;72.49;95254.50;10410225;28;20201;-66
2023/04/24 09:36:18;;;;;;;0.63;0.63;;;;;;;12.83;72.11;95258.88;10412321;28;20240;-66
2023/04/24 09:41:18;;;;;;;0.65;0.65;;;;;;;13.16;72.14;95275.56;10380610;28;20698;-66
2023/04/24 09:46:19;;;;;;;0.63;0.63;;;;;;;12.52;72.36;95267.41;10383921;28;20228;-67
2023/04/24 09:51:33;;;;;;;2.13;0.85;;;;;;;12.80;70.56;95254.03;10409453;28;20219;-67
2023/04/24 09:56:34;;;;;;;1.00;0.90;;;;;;;12.34;72.83;95278.53;10391877;28;20252;-66
2023/04/24 10:01:35;;;;;;;2.08;0.70;;;;;;;12.19;72.65;95262.19;10410932;28;20283;-66
2023/04/24 10:06:35;;;;;;;0.82;0.75;;;;;;;12.75;72.40;95271.44;10387777;28;20732;-67
2023/04/24 10:11:36;;;;;;;0.80;0.80;;;;;;;12.65;72.51;95271.88;10411317;28;20719;-68
2023/04/24 10:16:38;;;;;;;0.75;0.65;;;;;;;12.92;71.17;95262.06;10409794;28;20209;-66
2023/04/24 10:21:42;;;;;;;0.80;0.80;;;;;;;12.43;70.54;95237.13;10411031;28;20671;-66
2023/04/24 10:26:43;;;;;;;1.63;0.80;;;;;;;12.79;70.78;95239.28;10410721;28;20339;-66
2023/04/24 10:31:45;;;;;;;1.05;0.65;;;;;;;12.96;69.16;95226.47;10401515;28;20205;-67
2023/04/24 10:36:50;;;;;;;1.70;1.05;;;;;;;12.95;70.15;95237.19;10423666;22;20313;-64
2023/04/24 10:41:51;;;;;;;1.20;0.82;;;;;;;13.17;69.95;95254.31;10388622;28;20236;-65
2023/04/24 10:46:55;;;;;;;0.55;0.50;;;;;;;12.97;70.51;95259.66;10409823;28;20319;-66
2023/04/24 10:52:00;;;;;;;1.25;0.90;;;;;;;12.47;74.43;95314.50;10409639;28;20193;-65
2023/04/24 10:57:29;;;;;;;5.10;1.95;;;;;;;11.75;75.12;95317.63;10409200;28;20218;-65
2023/04/24 11:02:38;;;;;;;0.70;0.70;;;;;;;11.66;75.64;95323.25;10399709;28;20208;-64
2023/04/24 11:08:16;;;;;;;0.70;0.70;;;;;;;11.86;77.72;95360.84;10408099;28;20216;-65
2023/04/24 11:13:17;;;;;;;1.95;1.10;;;;;;;11.74;80.74;95386.84;10409069;28;20642;-63
2023/04/24 11:18:18;;;;;;;0.90;0.90;;;;;;;12.13;81.34;95384.59;10408614;28;20233;-64
2023/04/24 11:23:19;;;;;;;1.70;0.77;;;;;;;12.79;79.02;95354.91;10408307;28;20248;-64
2023/04/24 11:28:19;;;;;;;0.75;0.75;;;;;;;13.18;77.38;95337.44;10390592;28;20228;-64
2023/04/24 11:33:21;;;;;;;1.15;0.90;;;;;;;13.32;75.80;95325.06;10408698;28;20226;-66
2023/04/24 11:38:21;;;;;;;1.13;0.95;;;;;;;12.39;77.98;95360.16;10406479;28;20279;-64
2023/04/24 11:43:22;;;;;;;1.30;1.08;;;;;;;11.79;77.39;95339.03;10390053;28;20225;-64
2023/04/24 11:48:22;;;;;;;3.60;1.40;;;;;;;12.18;76.89;95344.59;10390670;28;20204;-65
2023/04/24 11:53:23;;;;;;;1.60;1.00;;;;;;;12.25;76.06;95337.53;10407601;28;20272;-63
2023/04/24 11:58:23;;;;;;;1.45;1.00;;;;;;;12.88;73.34;95291.59;10389922;28;20256;-64
2023/04/24 12:03:23;;;;;;;1.05;1.05;;;;;;;13.73;68.22;95234.41;10407696;28;20559;-66
2023/04/24 12:08:28;;;;;;;3.25;0.93;;;;;;;13.93;64.03;95183.44;10388683;28;20890;-65
2023/04/24 12:13:29;;;;;;;3.25;0.93;;;;;;;14.45;59.06;95123.38;10407172;28;20242;-65
2023/04/24 12:18:29;;;;;;;2.90;0.98;;;;;;;13.81;58.25;95141.22;10407654;28;20243;-67
2023/04/24 12:23:34;;;;;;;0.90;0.80;;;;;;;13.83;57.03;95112.06;10401052;28;20227;-65
2023/04/24 12:28:36;;;;;;;1.45;1.00;;;;;;;12.83;60.03;95163.44;10385319;28;20292;-65
2023/04/24 12:33:38;;;;;;;1.92;0.85;;;;;;;13.77;58.81;95152.38;10398068;28;20192;-64
2023/04/24 12:38:44;;;;;;;0.73;0.73;;;;;;;13.39;59.12;95164.59;10397256;28;20231;-65
2023/04/24 12:43:55;;;;;;;2.60;1.40;;;;;;;13.31;61.85;95220.06;10401510;28;20783;-65
2023/04/24 12:48:55;;;;;;;1.65;0.90;;;;;;;14.03;57.70;95154.00;10411193;28;20224;-65
2023/04/24 12:53:55;;;;;;;1.20;0.90;;;;;;;13.84;59.20;95176.84;10411827;28;20662;-66
2023/04/24 12:58:56;;;;;;;1.27;1.00;;;;;;;14.21;59.27;95183.00;10414306;28;20238;-65
2023/04/24 13:03:56;;;;;;;2.05;1.00;;;;;;;14.97;56.46;95141.44;10413585;28;20717;-66
2023/04/24 13:08:57;;;;;;;3.70;1.27;;;;;;;15.85;53.42;95114.63;10412700;28;20698;-66
2023/04/24 13:13:58;;;;;;;1.52;1.10;;;;;;;15.27;54.88;95116.09;10412991;28;20193;-66
2023/04/24 13:18:58;;;;;;;1.48;1.05;;;;;;;16.44;50.21;95074.91;10413204;28;20216;-67
2023/04/24 13:23:58;;;;;;;1.30;1.00;;;;;;;15.07;53.23;95111.06;10413344;28;20216;-66
2023/04/24 13:28:59;;;;;;;2.38;1.08;;;;;;;15.69;49.33;95042.13;10413258;28;20304;-66
2023/04/24 13:33:59;;;;;;;2.25;1.10;;;;;;;13.87;52.07;95058.78;10412637;28;20241;-66
2023/04/24 13:39:00;;;;;;;1.00;1.00;;;;;;;13.19;53.92;95110.28;10412526;28;20722;-66
2023/04/24 13:44:00;;;;;;;1.40;1.17;;;;;;;13.97;53.30;95107.47;10403591;28;20719;-66
2023/04/24 13:49:03;;;;;;;4.97;1.15;;;;;;;14.32;52.91;95109.53;10383777;28;20292;-66
2023/04/24 13:54:03;;;;;;;1.38;0.90;;;;;;;16.64;50.31;95103.59;10388966;28;20177;-67
2023/04/24 13:59:05;;;;;;;2.35;1.38;;;;;;;16.18;48.09;95032.09;10387678;28;20264;-66
2023/04/24 14:04:05;;;;;;;1.27;1.10;;;;;;;17.62;43.79;94986.19;10369975;28;20268;-67
2023/04/24 14:09:06;;;;;;;1.20;1.10;;;;;;;14.88;47.45;94989.84;10370332;28;20309;-68
2023/04/24 14:14:07;;;;;;;1.48;1.20;;;;;;;14.27;49.62;95036.44;10370600;28;20182;-67
2023/04/24 14:19:07;;;;;;;1.98;1.30;;;;;;;15.68;48.39;95043.16;10376921;28;20224;-67
2023/04/24 14:24:08;;;;;;;1.08;1.00;;;;;;;17.15;45.83;95015.66;10411031;28;20220;-68
2023/04/24 14:29:08;;;;;;;2.00;1.45;;;;;;;14.17;50.13;95034.34;10410048;28;20238;-67
2023/04/24 14:34:09;;;;;;;2.85;1.60;;;;;;;14.01;50.95;95048.09;10392543;28;20203;-67
2023/04/24 14:39:10;;;;;;;1.15;1.05;;;;;;;13.73;52.72;95080.97;10409507;28;20244;-66
2023/04/24 14:44:10;;;;;;;2.20;1.20;;;;;;;14.42;53.04;95126.44;10409897;28;20595;-66
2023/04/24 14:49:12;;;;;;;2.05;1.73;;;;;;;14.34;52.13;95103.03;10408964;28;20225;-66
2023/04/24 14:54:13;;;;;;;2.55;1.38;;;;;;;14.42;51.04;95099.28;10409002;28;20235;-67
2023/04/24 14:59:14;;;;;;;2.55;1.23;;;;;;;14.26;50.78;95084.91;10410556;28;20262;-67
2023/04/24 15:04:14;;;;;;;2.35;1.10;;;;;;;14.71;48.79;95070.59;10411972;28;20224;-68
2023/04/24 15:09:14;;;;;;;1.20;1.10;;;;;;;14.62;50.44;95099.91;10395490;28;20279;-65
2023/04/24 15:14:15;;;;;;;1.30;1.20;;;;;;;14.76;50.14;95105.00;10388079;28;20208;-66
2023/04/24 15:19:16;;;;;;;1.25;1.10;;;;;;;14.53;49.62;95095.13;10388128;28;20299;-66
2023/04/24 15:24:16;;;;;;;1.50;1.30;;;;;;;13.63;51.15;95096.41;10412009;28;20220;-66
2023/04/24 15:29:16;;;;;;;1.50;1.40;;;;;;;12.71;54.37;95146.72;10411980;28;20220;-66
2023/04/24 15:34:17;;;;;;;1.30;1.20;;;;;;;12.76;54.71;95160.84;10411576;28;20185;-66
2023/04/24 15:39:17;;;;;;;1.58;1.40;;;;;;;13.45;54.42;95178.75;10411207;28;20260;-66
2023/04/24 15:44:17;;;;;;;2.60;1.90;;;;;;;12.39;56.37;95184.22;10392428;28;20220;-66
2023/04/24 15:49:18;;;;;;;2.15;1.30;;;;;;;12.54;57.37;95225.19;10389034;28;20212;-66
2023/04/24 15:54:18;;;;;;;1.88;1.60;;;;;;;12.04;59.34;95251.91;10389423;28;20541;-66
2023/04/24 15:59:19;;;;;;;2.50;1.67;;;;;;;11.38;61.22;95288.28;10389567;28;20205;-64
2023/04/24 16:04:19;;;;;;;2.15;1.98;;;;;;;11.14;62.21;95288.78;10408065;28;20220;-66
2023/04/24 16:09:20;;;;;;;3.13;2.30;;;;;;;11.46;62.79;95300.41;10424880;28;20286;-66
2023/04/24 16:14:20;;;;;;;2.38;2.03;;;;;;;12.08;61.51;95285.44;10424367;28;20192;-66
2023/04/24 16:19:20;;;;;;;2.78;2.05;;;;;;;11.66;61.24;95273.44;10424694;28;20326;-66
2023/04/24 16:24:24;;;;;;;2.40;1.90;;;;;;;11.63;62.45;95308.72;10424334;28;20228;-65
2023/04/24 16:29:24;;;;;;;8.32;2.28;;;;;;;11.14;62.58;95301.91;10424255;28;20212;-65
2023/04/24 16:34:25;;;;;;;5.37;1.90;;;;;;;11.14;62.93;95305.31;10424508;28;20184;-66
2023/04/24 16:39:25;;;;;;;1.70;1.60;;;;;;;11.20;62.86;95315.03;10435651;23;20247;-65
2023/04/24 16:44:26;;;;;;;1.73;1.63;;;;;;;11.59;61.97;95308.31;10422558;28;20255;-66
2023/04/24 16:49:29;;;;;;;1.40;1.27;;;;;;;11.62;61.37;95301.06;10424048;28;20220;-66
2023/04/24 16:54:33;;;;;;;1.75;1.65;;;;;;;11.32;62.00;95323.16;10423803;28;20319;-67
2023/04/24 16:59:33;;;;;;;2.75;1.30;;;;;;;11.18;64.05;95342.41;10424159;28;20204;-67
2023/04/24 17:04:36;;;;;;;3.17;1.60;;;;;;;11.21;63.67;95349.94;10423484;28;20224;-67
2023/04/24 17:09:37;;;;;;;1.38;1.20;;;;;;;11.05;63.20;95349.22;10423376;28;20695;-67
2023/04/24 17:14:37;;;;;;;1.77;1.20;;;;;;;10.76;64.28;95354.69;10423589;28;20271;-67
2023/04/24 17:19:37;;;;;;;1.70;1.42;;;;;;;10.46;65.91;95383.66;10418353;28;20208;-66
2023/04/24 17:24:38;;;;;;;1.57;1.20;;;;;;;10.39;67.17;95407.16;10417765;28;20224;-67
2023/04/24 17:29:39;;;;;;;1.67;1.30;;;;;;;10.09;68.10;95424.75;10417226;28;20251;-67
2023/04/24 17:34:39;;;;;;;1.57;1.47;;;;;;;9.74;70.60;95442.84;10417041;28;20184;-66
2023/04/24 17:39:40;;;;;;;2.97;2.10;;;;;;;9.84;70.89;95463.53;10415986;28;20251;-66
2023/04/24 17:44:40;;;;;;;1.57;1.37;;;;;;;9.96;70.50;95452.38;10416338;28;20286;-66
2023/04/24 17:49:41;;;;;;;1.23;1.00;;;;;;;9.42;71.07;95465.81;10415752;28;20225;-66
2023/04/24 17:54:42;;;;;;;0.90;0.90;;;;;;;9.29;71.45;95474.25;10415782;28;20196;-66
2023/04/24 17:59:42;;;;;;;0.90;0.90;;;;;;;9.18;72.10;95485.94;10415988;28;20223;-66
2023/04/24 18:04:42;;;;;;;1.60;1.37;;;;;;;8.94;73.17;95502.66;10414513;28;20534;-66
2023/04/24 18:09:43;;;;;;;1.10;1.00;;;;;;;8.62;74.29;95527.22;10415308;28;20628;-66
2023/04/24 18:14:43;;;;;;;1.00;1.00;;;;;;;8.67;76.04;95543.19;10414446;28;20592;-67
2023/04/24 18:19:43;;;;;;;1.20;1.10;;;;;;;8.50;78.50;95564.16;10414494;28;20213;-66
2023/04/24 18:24:44;;;;;;;1.73;1.50;;;;;;;8.59;79.84;95572.78;10414186;28;20231;-66
2023/04/24 18:29:44;;;;;;;1.57;1.30;;;;;;;8.39;82.80;95603.66;10412774;28;20204;-66
2023/04/24 18:34:45;;;;;;;1.57;1.27;;;;;;;8.54;85.95;95609.81;10414196;28;20243;-66
2023/04/24 18:39:45;;;;;;;1.60;1.50;;;;;;;8.18;95.03;95648.59;10413306;28;20248;-66
2023/04/24 18:44:45;;;;;;;1.70;1.60;;;;;;;7.91;100.00;95645.38;10413522;28;20228;-67
2023/04/24 18:49:46;;;;;;;2.00;1.50;;;;;;;7.66;100.00;95648.03;10414479;28;20240;-68
2023/04/24 18:54:47;;;;;;;1.63;1.50;;;;;;;7.61;100.00;95652.09;10413216;28;20189;-67
2023/04/24 18:59:47;;;;;;;2.30;1.80;;;;;;;7.72;100.00;95666.59;10412834;28;20208;-67
2023/04/24 19:04:49;;;;;;;1.67;1.27;;;;;;;7.72;100.00;95680.47;10412742;28;20220;-67
2023/04/24 19:09:49;;;;;;;1.60;1.50;;;;;;;7.62;100.00;95705.88;10412413;28;20358;-68
2023/04/24 19:14:50;;;;;;;1.77;1.67;;;;;;;7.31;100.00;95709.09;10412305;28;20271;-67
2023/04/24 19:19:51;;;;;;;2.13;1.90;;;;;;;7.19;100.00;95708.59;10411987;28;20747;-67
2023/04/24 19:24:52;;;;;;;2.13;1.97;;;;;;;6.77;100.00;95694.66;10411889;28;20221;-67
2023/04/24 19:29:53;;;;;;;1.90;1.80;;;;;;;6.74;100.00;95689.78;10411763;28;20924;-67
2023/04/24 19:34:53;;;;;;;4.43;1.80;;;;;;;6.58;100.00;95700.97;10411533;28;20184;-66
2023/04/24 19:39:53;;;;;;;1.87;1.77;;;;;;;6.51;100.00;95697.34;10411037;28;20245;-66
2023/04/24 19:44:54;;;;;;;1.93;1.70;;;;;;;6.47;100.00;95696.00;10411214;28;20230;-66
2023/04/24 19:49:55;;;;;;;1.93;1.83;;;;;;;6.39;100.00;95699.38;10411110;28;20240;-67
2023/04/24 19:54:55;;;;;;;2.13;1.97;;;;;;;6.46;100.00;95698.78;10411547;28;20247;-67
2023/04/24 19:59:56;;;;;;;2.60;2.17;;;;;;;6.54;100.00;95702.22;10410639;28;20302;-66
2023/04/24 20:04:56;;;;;;;2.17;1.97;;;;;;;6.63;100.00;95703.09;10409649;28;20369;-67
2023/04/24 20:09:56;;;;;;;4.17;2.30;;;;;;;6.69;100.00;95709.44;10410612;28;20634;-66
2023/04/24 20:14:57;;;;;;;3.50;2.33;;;;;;;6.78;100.00;95708.50;10410712;28;20666;-66
2023/04/24 20:19:57;;;;;;;3.93;2.60;;;;;;;6.84;100.00;95710.47;10410263;28;20780;-67
2023/04/24 20:24:57;;;;;;;2.63;2.40;;;;;;;6.86;100.00;95705.94;10410716;28;20220;-67
2023/04/24 20:29:58;;;;;;;2.50;2.30;;;;;;;6.88;100.00;95703.16;10410557;28;20242;-67
2023/04/24 20:34:58;;;;;;;2.60;2.20;;;;;;;6.97;100.00;95708.22;10410225;28;20266;-67
2023/04/24 20:40:04;;;;;;;2.23;2.03;;;;;;;7.04;100.00;95704.97;10410694;28;20574;-67
2023/04/24 20:45:05;;;;;;;2.40;2.20;;;;;;;7.06;100.00;95713.44;10410206;28;20220;-67
2023/04/24 20:50:06;;;;;;;2.40;2.20;;;;;;;7.05;100.00;95720.44;10410224;28;20204;-68
2023/04/24 20:55:07;;;;;;;2.63;2.30;;;;;;;7.06;100.00;95716.88;10416129;28;20311;-66
2023/04/24 21:00:09;;;;;;;2.87;2.37;;;;;;;6.85;100.00;95714.69;10417766;28;20212;-67
2023/04/24 21:05:09;;;;;;;3.10;2.43;;;;;;;6.77;100.00;95712.88;10417342;28;20217;-67
2023/04/24 21:10:12;;;;;;;3.13;2.37;;;;;;;6.70;100.00;95717.09;10417097;28;20250;-67
2023/04/24 21:15:12;;;;;;;3.03;2.67;;;;;;;6.38;100.00;95720.34;10417474;28;20214;-67
2023/04/24 21:20:12;;;;;;;4.17;2.73;;;;;;;6.30;100.00;95721.13;10415838;28;20208;-67
2023/04/24 21:25:13;;;;;;;3.37;2.87;;;;;;;6.37;100.00;95719.56;10395300;28;20604;-67
2023/04/24 21:30:13;;;;;;;3.43;2.70;;;;;;;6.61;100.00;95702.41;10394236;28;20702;-67
2023/04/24 21:35:13;;;;;;;3.93;3.40;;;;;;;6.71;100.00;95704.91;10378505;28;20670;-67
2023/04/24 21:40:14;;;;;;;3.40;3.10;;;;;;;6.73;100.00;95689.94;10375460;28;20241;-67
2023/04/24 21:45:15;;;;;;;5.00;3.80;;;;;;;6.71;100.00;95692.69;10375179;28;20254;-67
2023/04/24 21:50:15;;;;;;;4.93;3.77;;;;;;;6.77;100.00;95686.84;10375131;28;20679;-67
2023/04/24 21:55:15;;;;;;;5.40;3.80;;;;;;;6.74;100.00;95676.75;10375195;28;20569;-67
2023/04/24 22:00:16;;;;;;;5.17;4.00;;;;;;;6.96;100.00;95677.13;10374384;28;20221;-67
2023/04/24 22:05:17;;;;;;;4.57;3.53;;;;;;;6.68;100.00;95680.00;10373217;28;20272;-67
2023/04/24 22:10:17;;;;;;;5.30;3.20;;;;;;;6.86;100.00;95679.06;10374109;28;20288;-67
2023/04/24 22:15:18;;;;;;;3.43;3.13;;;;;;;6.88;100.00;95675.34;10374534;28;20211;-67
2023/04/24 22:20:19;;;;;;;3.97;3.20;;;;;;;6.69;100.00;95679.03;10373947;28;20217;-67
2023/04/24 22:25:19;;;;;;;3.53;2.77;;;;;;;6.66;100.00;95671.53;10373977;28;20263;-67
2023/04/24 22:30:20;;;;;;;2.97;2.77;;;;;;;6.62;100.00;95687.63;10373672;28;20240;-67
2023/04/24 22:35:20;;;;;;;4.77;3.40;;;;;;;6.50;100.00;95681.88;10373393;28;20597;-67
2023/04/24 22:40:21;;;;;;;4.33;3.03;;;;;;;6.55;100.00;95677.81;10409938;22;20244;-66
2023/04/24 22:45:25;;;;;;;4.33;3.53;;;;;;;6.30;100.00;95678.72;10395600;28;20232;-66
2023/04/24 22:50:25;;;;;;;4.17;3.77;;;;;;;6.39;100.00;95678.59;10413449;28;20729;-66
2023/04/24 22:55:25;;;;;;;4.90;4.20;;;;;;;6.03;100.00;95676.13;10413526;28;20200;-66
2023/04/24 23:00:26;;;;;;;7.10;4.10;;;;;;;6.06;100.00;95685.41;10412856;28;20217;-66
2023/04/24 23:05:27;;;;;;;6.07;4.33;;;;;;;5.86;100.00;95692.56;10413210;28;20220;-66
2023/04/24 23:10:27;;;;;;;5.73;4.60;;;;;;;5.91;100.00;95690.31;10412855;28;20213;-66
2023/04/24 23:15:27;;;;;;;8.47;4.33;;;;;;;5.86;100.00;95697.75;10412072;28;20212;-67
2023/04/24 23:20:28;;;;;;;5.77;4.90;;;;;;;5.95;100.00;95691.63;10412464;28;20217;-66